Sign in:
Email
 Password  save:
  
 Company Reports 
 
   
My Recent Searches
  Help
 
   
 
 
Get Institutions for : 
AutoNation Inc (AN)    
$50.23 2.01 (4.17%) as of 4:30 Mon 10/20


Download
     
Institutional Holders
Viewing Quarter :
  
Total Institutions: 270    7
Total shares held : 
77,456,921  
% of shares held : 
64.06%  
Changes In:
New/increased positions vs   
old/decreased positions : 
  27  
Amount of shares held : 
2,431,565  
% of shares held change : 
  2.01%  
Quarter Price vs. Current Price:
Last Quarter's Starting Price
$54.69  
Last Quarter's Ending Price : 
$59.68  
Last Quarter's Average Price
$55.24  
Change from last quarter's     
avg. price to the last closing  : 
5.01 (9.07%)  




 
All Securities Held :
Positions
     Shares
% Of
Total Shares
New Positions :
43
 3,350,185
 4.33%
 
Increased Positions :
105
 6,260,501
 8.08%
 
Unchanged Positions :
37
 3,161,809
 4.08%
 
Decreased Positions :
85
-5,466,044
-7.06%
 
Closed Positions :
36
-1,713,077
-2.21%
 
Guru Positions :
2
12,002,987
 15.5%
 
View holdings for period: 
9-30-2012 View holdings for period: 
12-31-2012 View holdings for period: 
3-31-2013 View holdings for period: 
6-30-2013 View holdings for period: 
9-30-2013 View holdings for period: 
12-31-2013 View holdings for period: 
3-31-2014 View holdings for the current period

  Page 1 of 1  
Free Registration Required For Full Results


            Institution Name
Portfolio
Position
New/Closed
Position

Filing Date

Total Shares

Total Value

Change in Shares

File
   RBS PARTNERS LP -- Notable Guru -- 2 - 2014-06-30 11,815,577 $705,154,000 -542,256
   CAPITAL RESEARCH GLOBAL INVESTORS 151 - 2014-06-30 6,519,000 $389,054,000 -116,707
   LONE PINE CAPITAL LLC 29 - 2014-06-30 5,067,310 $302,417,000 1,075,555
   VANGUARD GROUP INC 777 - 2014-06-30 4,837,858 $288,724,000 200,392
   HORIZON KINETICS LLC 5 - 2014-06-30 4,809,411 $287,026,000 -163,374
   SIRIOS CAPITAL MANAGEMENT L P 3 - 2014-06-30 2,836,187 $169,264,000 121,482
   STATE STREET CORP 690 - 2014-06-30 2,621,157 $156,438,000 415,924
   OZ MANAGEMENT LP 41 - 2014-06-30 2,495,972 $148,960,000 -579,121
   BILL & MELINDA GATES FOUNDATION TRUST 16 - 2014-06-30 1,898,716 $113,315,000 0
   SCOPIA MANAGEMENT INC 10 - 2014-06-30 1,843,367 $110,012,000 -892,246
   BLACKROCK INSTITUTIONAL TRUST COMPANY 849 - 2014-06-30 1,786,747 $106,633,000 314,722
   GUGGENHEIM CAPITAL LLC 48 - 2014-06-30 1,476,900 $88,142,000 994,957
   BANK OF AMERICA CORP /DE/ 485 - 2014-06-30 1,456,367 $86,916,000 551,788
   EMINENCE CAPITAL LLC 28 - 2014-06-30 1,423,842 $84,975,000 33,800
   EATON VANCE MANAGEMENT 106 - 2014-06-30 1,284,799 $76,677,000 23,213
   AXIOM INTERNATIONAL INVESTORS LLC /DE 20 - 2014-06-30 1,145,187 $68,345,000 325,987
   GAMCO INVESTORS INC ET AL 88 - 2014-06-30 1,054,629 $62,940,000 -20,516
   WELLS FARGO & CO/MN 692 - 2014-06-30 991,807 $59,192,000 -33,724
   FMR LLC 1252 - 2014-06-30 989,103 $59,030,000 -7,121
   NEW MOUNTAIN VANTAGE ADVISERS LLC 18 - 2014-06-30 855,782 $51,073,000 112,764
   PORTER ORLIN LLC 21 - 2014-06-30 854,000 $50,967,000 -234,000
   BLACKROCK FUND ADVISORS 1428 - 2014-06-30 799,986 $47,743,000 154,593
   LOOMIS SAYLES & CO L P 139 - 2014-06-30 788,255 $47,044,000 -103,915
   NORTHERN TRUST CORP 851 - 2014-06-30 766,499 $45,745,000 184,757
   BANK OF NEW YORK MELLON CORP 959 - 2014-06-30 766,044 $45,717,000 129,901
   CLOUGH CAPITAL PARTNERS L P 17 - 2014-06-30 692,300 $41,316,000 -470,800
   HIGHLINE CAPITAL MANAGEMENT LLC 21 *New 2014-06-30 643,700 $38,416,000 643,700
   APEX CAPITAL MANAGEMENT 31 - 2014-06-30 632,414 $37,742,000 65,822
   GLENVIEW CAPITAL MANAGEMENT LLC 62 *New 2014-06-30 620,676 $37,042,000 620,676
   POLAR CAPITAL LLP 54 - 2014-06-30 460,870 $27,505,000 -55,210
   GEODE CAPITAL MANAGEMENT LLC 686 - 2014-06-30 456,266 $27,212,000 9,386
   EVERCORE WEALTH MANAGEMENT, LLC 27 - 2014-06-30 411,415 $24,580,000 15,296
   GABELLI FUNDS LLC 244 - 2014-06-30 397,200 $23,705,000 0
   BLACKROCK GROUP LTD 743 - 2014-06-30 383,287 $22,875,000 225,460
   ZEKE CAPITAL ADVISORS, LLC 1 - 2014-06-30 380,552 $22,711,000 0
   ALLIANZ ASSET MANAGEMENT AG 525 *New 2014-06-30 374,769 $22,366,000 374,769
   NEW YORK STATE COMMON RETIREMENT FUND 669 - 2014-06-30 303,307 $18,101,000 58,976
   SPEARS ABACUS ADVISORS LLC 23 - 2014-06-30 294,595 $17,581,000 -5,425
   MILLENNIUM MANAGEMENT LLC 517 - 2014-06-30 286,834 $17,118,000 -78,379
   GLUSKIN SHEFF & ASSOC INC 36 *New 2014-06-30 260,300 $15,535,000 260,300
   Adams Hall Wealth Advisors LLC 12 - 2014-06-30 256,549 $15,311,000 0
   DIMENSIONAL FUND ADVISORS INC 1910 - 2014-06-30 254,760 $15,203,000 -202
   MAPLELANE CAPITAL, LLC 9 - 2014-06-30 250,000 $14,920,000 115,000
   GOLDMAN SACHS GROUP INC/ 1410 - 2014-06-30 248,579 $14,835,000 -172,089
   MARINER WEALTH ADVISORS, LLC 10 - 2014-03-31 256,549 $13,656,000 0
   FIRST TRUST ADVISORS LP 538 - 2014-06-30 219,092 $13,075,000 132,236
   BLACKROCK INVESTMENT MANAGEMENT LLC 830 - 2014-06-30 205,316 $12,253,000 22,545
   MORGAN STANLEY 1849 - 2014-06-30 201,542 $12,029,000 -18,772
   TIAA CREF INVESTMENT MANAGEMENT LLC 1055 - 2014-06-30 197,594 $11,792,000 47,269
   SUMITOMO MITSUI TRUST HOLDINGS, INC. 603 *New 2014-06-30 187,520 $11,191,000 187,520
   MANAGED ACCOUNT ADVISORS LLC 974 - 2014-06-30 181,563 $10,836,000 34,614
   CALIFORNIA PUBLIC EMPLOYEES RETIREMENT SYSTEM 968 - 2014-06-30 171,570 $10,239,000 -3,000
   UBS GLOBAL ASSET MANAGEMENT AMERICAS INC 809 - 2014-06-30 170,953 $10,203,000 111,252
   SUSQUEHANNA INTERNATIONAL GROUP, LLP 600 - 2014-06-30 167,174 $9,977,000 -3,935
   Private Capital Management LLC 35 - 2014-06-30 161,877 $9,661,000 -6,012
   SCHWAB CHARLES INVESTMENT MANAGEMENT INC 870 - 2014-03-31 172,976 $9,208,000 10,489
   ALYDAR PARTNERS LLC 27 *New 2014-06-30 150,000 $8,952,000 150,000
   ALGER FRED MANAGEMENT INC 308 *New 2014-06-30 149,128 $8,900,000 149,128
   LEGAL & GENERAL GROUP PLC 669 - 2014-06-30 147,044 $8,776,000 835
   MITSUBISHI UFJ TRUST & BANKING CORP 633 *New 2014-06-30 146,833 $8,763,000 146,833
   INVESCO LTD 1504 - 2014-06-30 135,100 $8,063,000 21,755
   Atlantic Trust Group LLC 218 - 2014-06-30 133,850 $7,988,000 -1,363
   CALIFORNIA STATE TEACHERS RETIREMENT SYSTEM 760 - 2014-06-30 132,854 $7,929,000 40,400
   RUSSELL FRANK CO/ 1045 - 2014-06-30 132,474 $7,906,000 127,098
   Winton Capital Management Ltd 356 - 2014-03-31 146,964 $7,823,000 87,192
   HANCOCK HOLDING CO 178 - 2014-06-30 132,627 $7,605,000 9,905
   PARAMETRIC PORTFOLIO ASSOCIATES 914 - 2014-06-30 125,884 $7,513,000 -9,458
   BARCLAYS PLC 769 - 2014-06-30 122,753 $7,244,000 19,845
   CREDIT SUISSE/ 1372 - 2014-06-30 116,774 $6,969,000 59,107
   BLACKROCK INC. 739 - 2014-06-30 116,599 $6,959,000 -223,362
   ALLIANCEBERNSTEIN L.P. 984 - 2014-06-30 114,949 $6,860,000 -68,613
   CITADEL ADVISORS LLC 849 - 2014-06-30 114,435 $6,829,000 -1,101,899
   LEUTHOLD WEEDEN CAPITAL MANAGEMENT LLC 65 - 2014-06-30 110,587 $6,600,000 -74
   OLD WEST INVESTMENT MANAGEMENT, LLC 7 - 2014-06-30 107,919 $6,440,000 -4,049
   GOTHAM ASSET MANAGEMENT, LLC 352 - 2014-06-30 104,049 $6,210,000 17,750
   RHUMBLINE ADVISERS 702 - 2014-06-30 102,602 $6,123,000 10,901
   PRICE T ROWE ASSOCIATES INC /MD/ 1416 - 2014-06-30 102,501 $6,117,000 -2,300
   SHAKER INVESTMENTS LLC/OH 4 - 2014-06-30 100,662 $6,008,000 -4,280
   NUMERIC INVESTORS LLC 217 *New 2014-06-30 99,600 $5,944,000 99,600
   PRINCIPAL FINANCIAL GROUP INC 1291 - 2014-06-30 97,841 $5,839,000 10,200
   PRUDENTIAL FINANCIAL INC 951 - 2014-06-30 94,590 $5,645,000 4,148
   Winton Capital Group Ltd 374 - 2014-06-30 91,588 $5,466,000 0
   NEW YORK STATE TEACHERS RETIREMENT SYSTEM 822 - 2014-06-30 88,966 $5,309,000 211
   HBK INVESTMENTS L P 136 - 2014-06-30 87,363 $5,214,000 11,763
   DENALI ADVISORS LLC 24 - 2014-06-30 87,100 $5,198,000 -2,500
   DEUTSCHE BANK AG 1742 - 2014-06-30 83,951 $5,007,000 27,562
   ROYAL BANK OF CANADA 1336 - 2014-06-30 81,645 $4,873,000 55,414
   KOREA INVESTMENT CORP 396 *New 2014-06-30 80,600 $4,810,000 80,600
   TELEMARK ASSET MANAGEMENT LLC 32 *New 2014-06-30 80,000 $4,774,000 80,000
   DIXON HUBARD FEINOUR & BROWN INC 20 - 2014-06-30 77,887 $4,648,000 279
   BLACKROCK JAPAN CO LTD 625 *New 2014-06-30 77,863 $4,647,000 77,863
   Swiss National Bank 783 *New 2014-06-30 75,600 $4,512,000 75,600
   BLUE ARROW CAPITAL MANAGEMENT LLC 48 - 2014-06-30 75,000 $4,476,000 -308,775
   HSBC HOLDINGS PLC 744 - 2014-06-30 73,639 $4,392,000 18,317
   CREDIT AGRICOLE S A 644 - 2014-06-30 70,739 $4,222,000 -11,995
   BP PLC 170 *New 2014-03-31 78,000 $4,151,000 78,000
   OXFORD ASSET MANAGEMENT 216 - 2014-06-30 66,549 $3,934,000 31,788
   STATE BOARD OF ADMINISTRATION OF FLORIDA RETIREMEN 917 - 2014-06-30 65,132 $3,887,000 -1,941
   MARINER QUANTITATIVE SOLUTIONS, LLC 59 *New 2014-06-30 58,700 $3,503,000 58,700
   TEACHERS ADVISORS INC 1299 - 2014-06-30 57,554 $3,435,000 15,449

  100 Records found
  1    
  Page 1 of 1
Free Registration Required For Full Results